sensor_id;sensor_type;location;lat;lon;timestamp;pressure;altitude;pressure_sealevel;temperature;humidity
76478;BME280;65309;49.790;18.972;2024-01-07T00:03:36;60192.63;;;-145.46;100.00
76478;BME280;65309;49.790;18.972;2024-01-07T00:08:40;60213.66;;;-145.46;100.00
76478;BME280;65309;49.790;18.972;2024-01-07T00:13:42;60201.06;;;-145.46;100.00
76478;BME280;65309;49.790;18.972;2024-01-07T00:18:44;60194.75;;;-145.46;100.00
76478;BME280;65309;49.790;18.972;2024-01-07T00:23:48;60188.44;;;-145.46;100.00
76478;BME280;65309;49.790;18.972;2024-01-07T00:28:50;60209.47;;;-145.46;100.00
76478;BME280;65309;49.790;18.972;2024-01-07T00:33:52;60175.81;;;-145.46;100.00
76478;BME280;65309;49.790;18.972;2024-01-07T00:38:56;60217.88;;;-145.46;100.00
76478;BME280;65309;49.790;18.972;2024-01-07T00:43:59;60207.34;;;-145.46;100.00
76478;BME280;65309;49.790;18.972;2024-01-07T00:49:01;60224.19;;;-145.46;100.00
76478;BME280;65309;49.790;18.972;2024-01-07T00:54:05;60209.47;;;-145.46;100.00
76478;BME280;65309;49.790;18.972;2024-01-07T00:59:07;60203.16;;;-145.46;100.00
76478;BME280;65309;49.790;18.972;2024-01-07T01:04:09;60243.09;;;-145.46;100.00
76478;BME280;65309;49.790;18.972;2024-01-07T01:09:13;60205.25;;;-145.46;100.00
76478;BME280;65309;49.790;18.972;2024-01-07T01:14:15;60215.75;;;-145.46;100.00
76478;BME280;65309;49.790;18.972;2024-01-07T01:19:18;60234.69;;;-145.46;100.00
76478;BME280;65309;49.790;18.972;2024-01-07T01:24:21;60188.44;;;-145.46;100.00
76478;BME280;65309;49.790;18.972;2024-01-07T01:29:24;60217.88;;;-145.46;100.00
76478;BME280;65309;49.790;18.972;2024-01-07T01:34:26;60175.81;;;-145.46;100.00
76478;BME280;65309;49.790;18.972;2024-01-07T01:39:30;60228.38;;;-145.46;100.00
76478;BME280;65309;49.790;18.972;2024-01-07T01:44:32;60192.63;;;-145.46;100.00
76478;BME280;65309;49.790;18.972;2024-01-07T01:49:35;60186.34;;;-145.46;100.00
76478;BME280;65309;49.790;18.972;2024-01-07T01:54:40;60228.38;;;-145.46;100.00
76478;BME280;65309;49.790;18.972;2024-01-07T01:59:42;60241.00;;;-145.46;100.00
76478;BME280;65309;49.790;18.972;2024-01-07T02:04:45;60234.69;;;-145.46;100.00
76478;BME280;65309;49.790;18.972;2024-01-07T02:09:48;60219.97;;;-145.46;100.00
76478;BME280;65309;49.790;18.972;2024-01-07T02:14:50;60205.25;;;-145.46;100.00
76478;BME280;65309;49.790;18.972;2024-01-07T02:19:53;60196.84;;;-145.46;100.00
76478;BME280;65309;49.790;18.972;2024-01-07T02:24:56;60207.34;;;-145.46;100.00
76478;BME280;65309;49.790;18.972;2024-01-07T02:29:59;60192.63;;;-145.46;100.00
76478;BME280;65309;49.790;18.972;2024-01-07T02:35:01;60234.69;;;-145.46;100.00
76478;BME280;65309;49.790;18.972;2024-01-07T02:40:06;60180.03;;;-145.46;100.00
76478;BME280;65309;49.790;18.972;2024-01-07T02:45:09;60192.63;;;-145.46;100.00
76478;BME280;65309;49.790;18.972;2024-01-07T02:50:11;60205.25;;;-145.46;100.00
76478;BME280;65309;49.790;18.972;2024-01-07T02:55:15;60180.03;;;-145.46;100.00
76478;BME280;65309;49.790;18.972;2024-01-07T03:00:18;60228.38;;;-145.46;100.00
76478;BME280;65309;49.790;18.972;2024-01-07T03:05:20;60186.34;;;-145.46;100.00
76478;BME280;65309;49.790;18.972;2024-01-07T03:10:24;60184.22;;;-145.46;100.00
76478;BME280;65309;49.790;18.972;2024-01-07T03:15:27;60211.56;;;-145.46;100.00
76478;BME280;65309;49.790;18.972;2024-01-07T03:20:29;60224.19;;;-145.46;100.00
76478;BME280;65309;49.790;18.972;2024-01-07T03:25:33;60232.59;;;-145.46;100.00
76478;BME280;65309;49.790;18.972;2024-01-07T03:30:35;60177.94;;;-145.46;100.00
76478;BME280;65309;49.790;18.972;2024-01-07T03:35:37;60245.19;;;-145.46;100.00
76478;BME280;65309;49.790;18.972;2024-01-07T03:40:41;60205.25;;;-145.46;100.00
76478;BME280;65309;49.790;18.972;2024-01-07T03:45:43;60241.00;;;-145.46;100.00
76478;BME280;65309;49.790;18.972;2024-01-07T03:50:46;60184.22;;;-145.46;100.00
76478;BME280;65309;49.790;18.972;2024-01-07T03:55:49;60213.66;;;-145.46;100.00
76478;BME280;65309;49.790;18.972;2024-01-07T04:00:52;60182.13;;;-145.46;100.00
76478;BME280;65309;49.790;18.972;2024-01-07T04:05:54;60226.28;;;-145.46;100.00
76478;BME280;65309;49.790;18.972;2024-01-07T04:10:58;60230.47;;;-145.46;100.00
76478;BME280;65309;49.790;18.972;2024-01-07T04:16:00;60226.28;;;-145.46;100.00
76478;BME280;65309;49.790;18.972;2024-01-07T04:21:02;60224.19;;;-145.46;100.00
76478;BME280;65309;49.790;18.972;2024-01-07T04:26:06;60222.06;;;-145.46;100.00
76478;BME280;65309;49.790;18.972;2024-01-07T04:31:09;60203.16;;;-145.46;100.00
76478;BME280;65309;49.790;18.972;2024-01-07T04:36:11;60198.94;;;-145.46;100.00
76478;BME280;65309;49.790;18.972;2024-01-07T04:41:15;60184.22;;;-145.46;100.00
76478;BME280;65309;49.790;18.972;2024-01-07T04:46:17;60184.22;;;-145.46;100.00
76478;BME280;65309;49.790;18.972;2024-01-07T04:51:19;60230.47;;;-145.46;100.00
76478;BME280;65309;49.790;18.972;2024-01-07T04:56:23;60201.06;;;-145.46;100.00
76478;BME280;65309;49.790;18.972;2024-01-07T05:01:25;60192.63;;;-145.46;100.00
76478;BME280;65309;49.790;18.972;2024-01-07T05:06:28;60186.34;;;-145.46;100.00
76478;BME280;65309;49.790;18.972;2024-01-07T05:11:31;60224.19;;;-145.46;100.00
76478;BME280;65309;49.790;18.972;2024-01-07T05:16:34;60194.75;;;-145.46;100.00
76478;BME280;65309;49.790;18.972;2024-01-07T05:21:36;60217.88;;;-145.46;100.00
76478;BME280;65309;49.790;18.972;2024-01-07T05:26:42;60230.47;;;-145.46;100.00
76478;BME280;65309;49.790;18.972;2024-01-07T05:31:44;60188.44;;;-145.46;100.00
76478;BME280;65309;49.790;18.972;2024-01-07T05:36:46;60213.66;;;-145.46;100.00
76478;BME280;65309;49.790;18.972;2024-01-07T05:41:50;60226.28;;;-145.46;100.00
76478;BME280;65309;49.790;18.972;2024-01-07T05:46:52;60249.41;;;-145.46;100.00
76478;BME280;65309;49.790;18.972;2024-01-07T05:51:54;60186.34;;;-145.46;100.00
76478;BME280;65309;49.790;18.972;2024-01-07T05:56:58;60228.38;;;-145.46;100.00
76478;BME280;65309;49.790;18.972;2024-01-07T06:02:01;60268.31;;;-145.46;100.00
76478;BME280;65309;49.790;18.972;2024-01-07T06:07:03;60198.94;;;-145.46;100.00
76478;BME280;65309;49.790;18.972;2024-01-07T06:12:07;60201.06;;;-145.46;100.00
76478;BME280;65309;49.790;18.972;2024-01-07T06:17:09;60163.22;;;-145.46;100.00
76478;BME280;65309;49.790;18.972;2024-01-07T06:22:11;60205.25;;;-145.46;100.00
76478;BME280;65309;49.790;18.972;2024-01-07T06:27:15;60182.13;;;-145.46;100.00
76478;BME280;65309;49.790;18.972;2024-01-07T06:32:17;60232.59;;;-145.46;100.00
76478;BME280;65309;49.790;18.972;2024-01-07T06:37:19;60207.34;;;-145.46;100.00
76478;BME280;65309;49.790;18.972;2024-01-07T06:42:23;60205.25;;;-145.46;100.00
76478;BME280;65309;49.790;18.972;2024-01-07T06:47:25;60173.72;;;-145.46;100.00
76478;BME280;65309;49.790;18.972;2024-01-07T06:52:28;60219.97;;;-145.46;100.00
76478;BME280;65309;49.790;18.972;2024-01-07T06:57:31;60175.81;;;-145.46;100.00
76478;BME280;65309;49.790;18.972;2024-01-07T07:02:34;60232.59;;;-145.46;100.00
76478;BME280;65309;49.790;18.972;2024-01-07T07:07:36;60207.34;;;-145.46;100.00
76478;BME280;65309;49.790;18.972;2024-01-07T07:12:40;60203.16;;;-145.46;100.00
76478;BME280;65309;49.790;18.972;2024-01-07T07:17:42;60180.03;;;-145.46;100.00
76478;BME280;65309;49.790;18.972;2024-01-07T07:22:45;60192.63;;;-145.46;100.00
76478;BME280;65309;49.790;18.972;2024-01-07T07:27:48;60213.66;;;-145.46;100.00
76478;BME280;65309;49.790;18.972;2024-01-07T07:32:50;60228.38;;;-145.46;100.00
76478;BME280;65309;49.790;18.972;2024-01-07T07:37:53;60238.88;;;-145.46;100.00
76478;BME280;65309;49.790;18.972;2024-01-07T07:42:57;60230.47;;;-145.46;100.00
76478;BME280;65309;49.790;18.972;2024-01-07T07:47:59;60175.81;;;-145.46;100.00
76478;BME280;65309;49.790;18.972;2024-01-07T07:53:02;60226.28;;;-145.46;100.00
76478;BME280;65309;49.790;18.972;2024-01-07T07:58:06;60190.53;;;-145.46;100.00
76478;BME280;65309;49.790;18.972;2024-01-07T08:03:09;60209.47;;;-145.46;100.00
76478;BME280;65309;49.790;18.972;2024-01-07T08:08:11;60224.19;;;-145.46;100.00
76478;BME280;65309;49.790;18.972;2024-01-07T08:13:15;60222.06;;;-145.46;100.00
76478;BME280;65309;49.790;18.972;2024-01-07T08:18:18;60219.97;;;-145.46;100.00
76478;BME280;65309;49.790;18.972;2024-01-07T08:23:20;60222.06;;;-145.46;100.00
76478;BME280;65309;49.790;18.972;2024-01-07T08:28:24;60213.66;;;-145.46;100.00
76478;BME280;65309;49.790;18.972;2024-01-07T08:33:26;60184.22;;;-145.46;100.00
76478;BME280;65309;49.790;18.972;2024-01-07T08:38:31;60217.88;;;-145.46;100.00
76478;BME280;65309;49.790;18.972;2024-01-07T08:43:35;60213.66;;;-145.46;100.00
76478;BME280;65309;49.790;18.972;2024-01-07T08:48:37;60238.88;;;-145.46;100.00
76478;BME280;65309;49.790;18.972;2024-01-07T08:53:40;60175.81;;;-145.46;100.00
76478;BME280;65309;49.790;18.972;2024-01-07T08:58:44;60175.81;;;-145.46;100.00
76478;BME280;65309;49.790;18.972;2024-01-07T09:03:46;60201.06;;;-145.46;100.00
76478;BME280;65309;49.790;18.972;2024-01-07T09:08:49;60201.06;;;-145.46;100.00
76478;BME280;65309;49.790;18.972;2024-01-07T09:13:52;60171.63;;;-145.46;100.00
76478;BME280;65309;49.790;18.972;2024-01-07T09:18:55;60205.25;;;-145.46;100.00
76478;BME280;65309;49.790;18.972;2024-01-07T09:23:57;60190.53;;;-145.46;99.32
76478;BME280;65309;49.790;18.972;2024-01-07T09:29:01;60184.22;;;-145.46;99.87
76478;BME280;65309;49.790;18.972;2024-01-07T09:34:03;60196.84;;;-145.46;100.00
76478;BME280;65309;49.790;18.972;2024-01-07T09:39:06;60194.75;;;-145.46;99.96
76478;BME280;65309;49.790;18.972;2024-01-07T09:44:10;60209.47;;;-145.46;100.00
76478;BME280;65309;49.790;18.972;2024-01-07T09:49:12;60192.63;;;-145.46;100.00
76478;BME280;65309;49.790;18.972;2024-01-07T09:54:17;60154.81;;;-145.46;99.52
76478;BME280;65309;49.790;18.972;2024-01-07T09:59:22;60188.44;;;-145.46;98.67
76478;BME280;65309;49.790;18.972;2024-01-07T10:04:25;60184.22;;;-145.46;98.67
76478;BME280;65309;49.790;18.972;2024-01-07T10:09:29;60215.75;;;-145.46;99.28
76478;BME280;65309;49.790;18.972;2024-01-07T10:14:33;60167.41;;;-145.46;99.64
76478;BME280;65309;49.790;18.972;2024-01-07T10:19:35;60201.06;;;-145.46;99.98
76478;BME280;65309;49.790;18.972;2024-01-07T10:24:39;60205.25;;;-145.46;100.00
76478;BME280;65309;49.790;18.972;2024-01-07T10:29:43;60230.47;;;-145.46;100.00
76478;BME280;65309;49.790;18.972;2024-01-07T10:34:56;60205.25;;;-145.46;100.00
76478;BME280;65309;49.790;18.972;2024-01-07T10:40:01;60186.34;;;-145.46;100.00
76478;BME280;65309;49.790;18.972;2024-01-07T10:45:07;60205.25;;;-145.46;100.00
76478;BME280;65309;49.790;18.972;2024-01-07T10:50:11;60133.78;;;-145.46;100.00
76478;BME280;65309;49.790;18.972;2024-01-07T10:55:17;60205.25;;;-145.46;100.00
76478;BME280;65309;49.790;18.972;2024-01-07T11:00:22;60180.03;;;-145.46;100.00
76478;BME280;65309;49.790;18.972;2024-01-07T11:05:31;60171.63;;;-145.46;100.00
76478;BME280;65309;49.790;18.972;2024-01-07T11:10:41;60163.22;;;-145.46;100.00
76478;BME280;65309;49.790;18.972;2024-01-07T11:22:27;60190.53;;;-145.46;99.13
76478;BME280;65309;49.790;18.972;2024-01-07T11:27:31;60222.06;;;-145.46;99.72
76478;BME280;65309;49.790;18.972;2024-01-07T11:32:34;60184.22;;;-145.46;100.00
76478;BME280;65309;49.790;18.972;2024-01-07T11:37:40;60207.34;;;-145.46;100.00
76478;BME280;65309;49.790;18.972;2024-01-07T11:42:44;60230.47;;;-145.46;100.00
76478;BME280;65309;49.790;18.972;2024-01-07T11:47:46;60177.94;;;-145.46;99.81
76478;BME280;65309;49.790;18.972;2024-01-07T11:52:50;60251.50;;;-145.46;100.00
76478;BME280;65309;49.790;18.972;2024-01-07T11:57:52;60196.84;;;-145.46;100.00
76478;BME280;65309;49.790;18.972;2024-01-07T12:02:55;60213.66;;;-145.46;99.49
76478;BME280;65309;49.790;18.972;2024-01-07T12:08:00;60184.22;;;-145.46;98.96
76478;BME280;65309;49.790;18.972;2024-01-07T12:13:03;60180.03;;;-145.46;98.09
76478;BME280;65309;49.790;18.972;2024-01-07T12:18:05;60188.44;;;-145.46;98.17
76478;BME280;65309;49.790;18.972;2024-01-07T12:23:12;60182.13;;;-145.46;98.48
76478;BME280;65309;49.790;18.972;2024-01-07T12:28:16;60201.06;;;-145.46;98.47
76478;BME280;65309;49.790;18.972;2024-01-07T12:33:20;60186.34;;;-145.46;99.13
76478;BME280;65309;49.790;18.972;2024-01-07T12:38:25;60209.47;;;-145.46;99.03
76478;BME280;65309;49.790;18.972;2024-01-07T12:43:27;60173.72;;;-145.46;97.80
76478;BME280;65309;49.790;18.972;2024-01-07T12:48:29;60194.75;;;-145.46;98.51
76478;BME280;65309;49.790;18.972;2024-01-07T12:53:33;60201.06;;;-145.46;98.78
76478;BME280;65309;49.790;18.972;2024-01-07T12:58:35;60171.63;;;-145.46;98.12
76478;BME280;65309;49.790;18.972;2024-01-07T13:03:38;60196.84;;;-145.46;98.32
76478;BME280;65309;49.790;18.972;2024-01-07T13:08:41;60217.88;;;-145.46;98.33
76478;BME280;65309;49.790;18.972;2024-01-07T13:13:44;60203.16;;;-145.46;98.61
76478;BME280;65309;49.790;18.972;2024-01-07T13:18:46;60184.22;;;-145.46;98.58
76478;BME280;65309;49.790;18.972;2024-01-07T13:23:50;60194.75;;;-145.46;99.29
76478;BME280;65309;49.790;18.972;2024-01-07T13:28:52;60163.22;;;-145.46;99.32
76478;BME280;65309;49.790;18.972;2024-01-07T13:33:55;60167.41;;;-145.46;99.76
76478;BME280;65309;49.790;18.972;2024-01-07T13:38:59;60201.06;;;-145.46;98.37
76478;BME280;65309;49.790;18.972;2024-01-07T13:44:02;60169.50;;;-145.46;98.53
76478;BME280;65309;49.790;18.972;2024-01-07T13:49:07;60217.88;;;-145.46;98.51
76478;BME280;65309;49.790;18.972;2024-01-07T13:54:11;60184.22;;;-145.46;98.64
76478;BME280;65309;49.790;18.972;2024-01-07T13:59:15;60192.63;;;-145.46;99.06
76478;BME280;65309;49.790;18.972;2024-01-07T14:04:19;60201.06;;;-145.46;99.36
76478;BME280;65309;49.790;18.972;2024-01-07T14:09:23;60213.66;;;-145.46;99.71
76478;BME280;65309;49.790;18.972;2024-01-07T14:14:26;60190.53;;;-145.46;100.00
76478;BME280;65309;49.790;18.972;2024-01-07T14:19:28;60196.84;;;-145.46;100.00
76478;BME280;65309;49.790;18.972;2024-01-07T14:24:32;60177.94;;;-145.46;99.90
76478;BME280;65309;49.790;18.972;2024-01-07T14:29:34;60188.44;;;-145.46;100.00
76478;BME280;65309;49.790;18.972;2024-01-07T14:34:38;60177.94;;;-145.46;100.00
76478;BME280;65309;49.790;18.972;2024-01-07T14:39:43;60207.34;;;-145.46;100.00
76478;BME280;65309;49.790;18.972;2024-01-07T14:44:47;60215.75;;;-145.46;100.00
76478;BME280;65309;49.790;18.972;2024-01-07T14:49:52;60184.22;;;-145.46;100.00
76478;BME280;65309;49.790;18.972;2024-01-07T14:54:56;60211.56;;;-145.46;100.00
76478;BME280;65309;49.790;18.972;2024-01-07T14:59:58;60201.06;;;-145.46;100.00
76478;BME280;65309;49.790;18.972;2024-01-07T15:05:01;60180.03;;;-145.46;100.00
76478;BME280;65309;49.790;18.972;2024-01-07T15:10:06;60194.75;;;-145.46;99.85
76478;BME280;65309;49.790;18.972;2024-01-07T15:15:08;60209.47;;;-145.46;99.72
76478;BME280;65309;49.790;18.972;2024-01-07T15:20:11;60230.47;;;-145.46;99.88
76478;BME280;65309;49.790;18.972;2024-01-07T15:25:15;60201.06;;;-145.46;100.00
76478;BME280;65309;49.790;18.972;2024-01-07T15:30:17;60186.34;;;-145.46;100.00
76478;BME280;65309;49.790;18.972;2024-01-07T15:35:20;60234.69;;;-145.46;100.00
76478;BME280;65309;49.790;18.972;2024-01-07T15:40:24;60188.44;;;-145.46;100.00
76478;BME280;65309;49.790;18.972;2024-01-07T15:45:27;60205.25;;;-145.46;100.00
76478;BME280;65309;49.790;18.972;2024-01-07T15:50:29;60203.16;;;-145.46;100.00
76478;BME280;65309;49.790;18.972;2024-01-07T15:55:33;60190.53;;;-145.46;100.00
76478;BME280;65309;49.790;18.972;2024-01-07T16:00:35;60188.44;;;-145.46;100.00
76478;BME280;65309;49.790;18.972;2024-01-07T16:05:38;60167.41;;;-145.46;100.00
76478;BME280;65309;49.790;18.972;2024-01-07T16:10:42;60165.31;;;-145.46;100.00
76478;BME280;65309;49.790;18.972;2024-01-07T16:15:44;60184.22;;;-145.46;100.00
76478;BME280;65309;49.790;18.972;2024-01-07T16:20:46;60184.22;;;-145.46;100.00
76478;BME280;65309;49.790;18.972;2024-01-07T16:25:50;60201.06;;;-145.46;99.86
76478;BME280;65309;49.790;18.972;2024-01-07T16:30:52;60196.84;;;-145.46;99.33
76478;BME280;65309;49.790;18.972;2024-01-07T16:35:57;60224.19;;;-145.46;99.46
76478;BME280;65309;49.790;18.972;2024-01-07T16:41:00;60186.34;;;-145.46;99.41
76478;BME280;65309;49.790;18.972;2024-01-07T16:46:03;60222.06;;;-145.46;99.31
76478;BME280;65309;49.790;18.972;2024-01-07T16:51:07;60175.81;;;-145.46;99.44
76478;BME280;65309;49.790;18.972;2024-01-07T16:56:16;60201.06;;;-145.46;100.00
76478;BME280;65309;49.790;18.972;2024-01-07T17:01:18;60184.22;;;-145.46;100.00
76478;BME280;65309;49.790;18.972;2024-01-07T17:06:25;60192.63;;;-145.46;100.00
76478;BME280;65309;49.790;18.972;2024-01-07T17:11:29;60222.06;;;-145.46;100.00
76478;BME280;65309;49.790;18.972;2024-01-07T17:16:34;60217.88;;;-145.46;100.00
76478;BME280;65309;49.790;18.972;2024-01-07T17:21:36;60201.06;;;-145.46;100.00
76478;BME280;65309;49.790;18.972;2024-01-07T17:26:40;60226.28;;;-145.46;100.00
76478;BME280;65309;49.790;18.972;2024-01-07T17:31:42;60180.03;;;-145.46;100.00
76478;BME280;65309;49.790;18.972;2024-01-07T17:36:45;60211.56;;;-145.46;100.00
76478;BME280;65309;49.790;18.972;2024-01-07T17:41:49;60171.63;;;-145.46;100.00
76478;BME280;65309;49.790;18.972;2024-01-07T17:46:51;60207.34;;;-145.46;100.00
76478;BME280;65309;49.790;18.972;2024-01-07T17:51:53;60177.94;;;-145.46;100.00
76478;BME280;65309;49.790;18.972;2024-01-07T17:56:57;60194.75;;;-145.46;100.00
76478;BME280;65309;49.790;18.972;2024-01-07T18:01:59;60177.94;;;-145.46;100.00
76478;BME280;65309;49.790;18.972;2024-01-07T18:07:01;60190.53;;;-145.46;100.00
76478;BME280;65309;49.790;18.972;2024-01-07T18:12:05;60207.34;;;-145.46;100.00
76478;BME280;65309;49.790;18.972;2024-01-07T18:17:08;60196.84;;;-145.46;100.00
76478;BME280;65309;49.790;18.972;2024-01-07T18:22:10;60198.94;;;-145.46;100.00
76478;BME280;65309;49.790;18.972;2024-01-07T18:27:14;60180.03;;;-145.46;100.00
76478;BME280;65309;49.790;18.972;2024-01-07T18:32:17;60205.25;;;-145.46;100.00
76478;BME280;65309;49.790;18.972;2024-01-07T18:37:19;60177.94;;;-145.46;100.00
76478;BME280;65309;49.790;18.972;2024-01-07T18:42:27;60188.44;;;-145.46;100.00
76478;BME280;65309;49.790;18.972;2024-01-07T18:47:30;60188.44;;;-145.46;100.00
76478;BME280;65309;49.790;18.972;2024-01-07T18:52:34;60203.16;;;-145.46;100.00
76478;BME280;65309;49.790;18.972;2024-01-07T18:57:38;60213.66;;;-145.46;100.00
76478;BME280;65309;49.790;18.972;2024-01-07T19:02:44;60201.06;;;-145.46;100.00
76478;BME280;65309;49.790;18.972;2024-01-07T19:07:46;60201.06;;;-145.46;100.00
76478;BME280;65309;49.790;18.972;2024-01-07T19:12:50;60159.00;;;-145.46;100.00
76478;BME280;65309;49.790;18.972;2024-01-07T19:17:52;60205.25;;;-145.46;100.00
76478;BME280;65309;49.790;18.972;2024-01-07T19:22:54;60201.06;;;-145.46;100.00
76478;BME280;65309;49.790;18.972;2024-01-07T19:27:58;60188.44;;;-145.46;100.00
76478;BME280;65309;49.790;18.972;2024-01-07T19:33:00;60222.06;;;-145.46;100.00
76478;BME280;65309;49.790;18.972;2024-01-07T19:38:05;60188.44;;;-145.46;100.00
76478;BME280;65309;49.790;18.972;2024-01-07T19:43:10;60171.63;;;-145.46;100.00
76478;BME280;65309;49.790;18.972;2024-01-07T19:48:13;60213.66;;;-145.46;99.53
76478;BME280;65309;49.790;18.972;2024-01-07T19:53:15;60203.16;;;-145.46;100.00
76478;BME280;65309;49.790;18.972;2024-01-07T19:58:32;60180.03;;;-145.46;100.00
76478;BME280;65309;49.790;18.972;2024-01-07T20:03:35;60175.81;;;-145.46;100.00
76478;BME280;65309;49.790;18.972;2024-01-07T20:08:40;60207.34;;;-145.46;100.00
76478;BME280;65309;49.790;18.972;2024-01-07T20:13:45;60209.47;;;-145.46;100.00
76478;BME280;65309;49.790;18.972;2024-01-07T20:18:48;60201.06;;;-145.46;100.00
76478;BME280;65309;49.790;18.972;2024-01-07T20:23:55;60219.97;;;-145.46;100.00
76478;BME280;65309;49.790;18.972;2024-01-07T20:29:01;60196.84;;;-145.46;99.30
76478;BME280;65309;49.790;18.972;2024-01-07T20:34:09;60251.50;;;-145.46;99.69
76478;BME280;65309;49.790;18.972;2024-01-07T20:39:12;60188.44;;;-145.46;99.33
76478;BME280;65309;49.790;18.972;2024-01-07T20:44:16;60211.56;;;-145.46;99.69
76478;BME280;65309;49.790;18.972;2024-01-07T20:49:19;60209.47;;;-145.46;99.74
76478;BME280;65309;49.790;18.972;2024-01-07T20:54:21;60194.75;;;-145.46;99.94
76478;BME280;65309;49.790;18.972;2024-01-07T20:59:25;60213.66;;;-145.46;100.00
76478;BME280;65309;49.790;18.972;2024-01-07T21:04:27;60201.06;;;-145.46;100.00
76478;BME280;65309;49.790;18.972;2024-01-07T21:09:30;60192.63;;;-145.46;100.00
76478;BME280;65309;49.790;18.972;2024-01-07T21:14:34;60234.69;;;-145.46;99.83
76478;BME280;65309;49.790;18.972;2024-01-07T21:19:36;60209.47;;;-145.46;99.85
76478;BME280;65309;49.790;18.972;2024-01-07T21:24:38;60182.13;;;-145.46;99.72
76478;BME280;65309;49.790;18.972;2024-01-07T21:29:42;60209.47;;;-145.46;100.00
76478;BME280;65309;49.790;18.972;2024-01-07T21:34:44;60156.91;;;-145.46;100.00
76478;BME280;65309;49.790;18.972;2024-01-07T21:39:47;60209.47;;;-145.46;99.84
76478;BME280;65309;49.790;18.972;2024-01-07T21:44:51;60146.38;;;-145.46;100.00
76478;BME280;65309;49.790;18.972;2024-01-07T21:49:55;60207.34;;;-145.46;100.00
76478;BME280;65309;49.790;18.972;2024-01-07T21:54:57;60192.63;;;-145.46;100.00
76478;BME280;65309;49.790;18.972;2024-01-07T22:00:01;60226.28;;;-145.46;100.00
76478;BME280;65309;49.790;18.972;2024-01-07T22:05:04;60224.19;;;-145.46;100.00
76478;BME280;65309;49.790;18.972;2024-01-07T22:10:07;60205.25;;;-145.46;100.00
76478;BME280;65309;49.790;18.972;2024-01-07T22:15:11;60194.75;;;-145.46;100.00
76478;BME280;65309;49.790;18.972;2024-01-07T22:20:13;60190.53;;;-145.46;100.00
76478;BME280;65309;49.790;18.972;2024-01-07T22:25:15;60163.22;;;-145.46;100.00
76478;BME280;65309;49.790;18.972;2024-01-07T22:30:19;60180.03;;;-145.46;100.00
76478;BME280;65309;49.790;18.972;2024-01-07T22:35:21;60222.06;;;-145.46;100.00
76478;BME280;65309;49.790;18.972;2024-01-07T22:40:24;60161.09;;;-145.46;100.00
76478;BME280;65309;49.790;18.972;2024-01-07T22:45:27;60167.41;;;-145.46;100.00
76478;BME280;65309;49.790;18.972;2024-01-07T22:50:31;60163.22;;;-145.46;100.00
76478;BME280;65309;49.790;18.972;2024-01-07T22:55:34;60171.63;;;-145.46;100.00
76478;BME280;65309;49.790;18.972;2024-01-07T23:00:37;60186.34;;;-145.46;100.00
76478;BME280;65309;49.790;18.972;2024-01-07T23:05:40;60209.47;;;-145.46;100.00
76478;BME280;65309;49.790;18.972;2024-01-07T23:10:42;60207.34;;;-145.46;100.00
76478;BME280;65309;49.790;18.972;2024-01-07T23:15:46;60184.22;;;-145.46;100.00
76478;BME280;65309;49.790;18.972;2024-01-07T23:20:48;60207.34;;;-145.46;100.00
76478;BME280;65309;49.790;18.972;2024-01-07T23:25:51;60177.94;;;-145.46;100.00
76478;BME280;65309;49.790;18.972;2024-01-07T23:30:56;60190.53;;;-145.46;100.00
76478;BME280;65309;49.790;18.972;2024-01-07T23:35:58;60198.94;;;-145.46;100.00
76478;BME280;65309;49.790;18.972;2024-01-07T23:41:08;60213.66;;;-145.46;100.00
76478;BME280;65309;49.790;18.972;2024-01-07T23:46:11;60167.41;;;-145.46;100.00
76478;BME280;65309;49.790;18.972;2024-01-07T23:51:14;60175.81;;;-145.46;100.00
76478;BME280;65309;49.790;18.972;2024-01-07T23:56:16;60173.72;;;-145.46;100.00
